createdAt,value
2022-10-29T00:03:50.368Z,15.59
2022-10-29T00:08:52.900Z,15.56
2022-10-29T00:13:58.496Z,15.54
2022-10-29T00:19:01.072Z,15.59
2022-10-29T00:24:03.970Z,15.58
2022-10-29T00:29:07.825Z,15.56
2022-10-29T00:34:10.375Z,15.55
2022-10-29T00:39:14.395Z,15.48
2022-10-29T00:44:28.759Z,15.51
2022-10-29T00:49:32.919Z,15.43
2022-10-29T00:54:38.718Z,15.43
2022-10-29T00:59:44.009Z,15.39
2022-10-29T01:04:47.160Z,15.36
2022-10-29T01:09:50.335Z,15.34
2022-10-29T01:15:02.150Z,15.33
2022-10-29T01:20:36.987Z,15.28
2022-10-29T01:26:00.432Z,15.21
2022-10-29T01:31:18.146Z,15.26
2022-10-29T01:36:26.728Z,15.27
2022-10-29T01:41:34.161Z,15.22
2022-10-29T01:46:41.214Z,15.25
2022-10-29T01:51:44.372Z,15.29
2022-10-29T01:56:54.931Z,15.30
2022-10-29T02:02:08.989Z,15.38
2022-10-29T02:07:18.207Z,15.15
2022-10-29T02:12:24.680Z,15.26
2022-10-29T02:17:28.409Z,15.20
2022-10-29T02:22:31.038Z,15.20
2022-10-29T02:27:33.582Z,15.25
2022-10-29T02:32:37.478Z,15.20
2022-10-29T02:37:40.044Z,15.28
2022-10-29T02:42:42.629Z,15.20
2022-10-29T02:47:46.551Z,15.19
2022-10-29T02:52:49.140Z,15.09
2022-10-29T02:57:51.730Z,15.00
2022-10-29T03:02:56.080Z,14.91
2022-10-29T03:07:58.939Z,14.89
2022-10-29T03:13:01.653Z,14.85
2022-10-29T03:18:06.203Z,14.78
2022-10-29T03:23:09.003Z,14.84
2022-10-29T03:28:12.003Z,14.76
2022-10-29T03:33:16.117Z,14.70
2022-10-29T03:38:18.676Z,14.71
2022-10-29T03:43:21.331Z,14.73
2022-10-29T03:48:25.985Z,14.69
2022-10-29T03:53:29.628Z,14.55
2022-10-29T03:58:32.230Z,14.64
2022-10-29T04:03:37.261Z,14.61
2022-10-29T04:08:40.387Z,14.63
2022-10-29T04:13:42.940Z,14.65
2022-10-29T04:18:48.895Z,14.60
2022-10-29T04:27:01.755Z,14.50
2022-10-29T04:29:14.339Z,14.36
2022-10-29T04:34:18.273Z,14.40
2022-10-29T04:39:23.356Z,14.48
2022-10-29T04:44:26.196Z,14.37
2022-10-29T04:49:30.190Z,14.24
2022-10-29T04:54:32.860Z,14.47
2022-10-29T04:59:35.421Z,14.35
2022-10-29T05:04:39.344Z,14.30
2022-10-29T05:09:41.881Z,14.22
2022-10-29T05:14:44.491Z,14.27
2022-10-29T05:19:48.384Z,14.32
2022-10-29T05:24:50.940Z,14.18
2022-10-29T05:29:53.494Z,14.28
2022-10-29T05:34:57.371Z,14.28
2022-10-29T05:39:59.963Z,14.22
2022-10-29T05:45:02.538Z,14.21
2022-10-29T05:50:07.516Z,14.21
2022-10-29T05:55:10.464Z,14.13
2022-10-29T06:00:13.834Z,14.07
2022-10-29T06:05:17.759Z,14.07
2022-10-29T06:10:20.425Z,14.03
2022-10-29T06:15:23.729Z,13.97
2022-10-29T06:20:27.655Z,14.06
2022-10-29T06:25:30.277Z,14.11
2022-10-29T06:30:34.122Z,14.04
2022-10-29T06:35:38.011Z,14.05
2022-10-29T06:40:40.881Z,14.11
2022-10-29T06:45:43.505Z,14.06
2022-10-29T06:50:47.506Z,14.11
2022-10-29T06:55:50.169Z,14.19
2022-10-29T07:00:52.835Z,14.24
2022-10-29T07:06:00.730Z,14.35
2022-10-29T07:11:04.380Z,14.54
2022-10-29T07:16:07.992Z,14.62
2022-10-29T07:21:12.679Z,14.61
2022-10-29T07:26:15.289Z,14.44
2022-10-29T07:31:17.871Z,14.53
2022-10-29T07:36:21.883Z,14.55
2022-10-29T07:41:24.433Z,14.59
2022-10-29T07:46:26.987Z,14.55
2022-10-29T07:51:31.033Z,14.71
2022-10-29T07:56:33.572Z,14.60
2022-10-29T08:01:36.248Z,14.78
2022-10-29T08:06:40.501Z,14.73
2022-10-29T08:11:43.124Z,14.91
2022-10-29T08:16:46.654Z,15.00
2022-10-29T08:21:50.531Z,15.02
2022-10-29T08:26:53.113Z,14.99
2022-10-29T08:31:55.669Z,15.07
2022-10-29T08:36:59.552Z,15.24
2022-10-29T08:42:11.392Z,15.37
2022-10-29T08:47:16.045Z,15.46
2022-10-29T08:52:24.351Z,15.47
2022-10-29T08:57:27.895Z,15.55
2022-10-29T09:02:31.096Z,15.62
2022-10-29T09:07:48.081Z,15.72
2022-10-29T09:13:01.230Z,15.76
2022-10-29T09:18:21.260Z,15.84
2022-10-29T09:23:31.817Z,15.88
2022-10-29T09:28:40.631Z,15.86
2022-10-29T09:33:44.046Z,15.94
2022-10-29T09:38:55.562Z,16.17
2022-10-29T09:44:02.100Z,16.23
2022-10-29T09:49:14.041Z,16.44
2022-10-29T09:54:18.254Z,16.63
2022-10-29T09:59:26.950Z,17.00
2022-10-29T10:04:32.164Z,17.05
2022-10-29T10:09:57.998Z,17.14
2022-10-29T10:15:06.857Z,17.41
2022-10-29T10:20:27.626Z,17.55
2022-10-29T10:25:37.559Z,17.80
2022-10-29T10:30:40.300Z,17.92
2022-10-29T10:35:42.869Z,18.18
2022-10-29T10:40:55.616Z,18.29
2022-10-29T10:45:59.746Z,18.58
2022-10-29T10:51:17.817Z,18.66
2022-10-29T10:56:23.531Z,18.63
2022-10-29T11:01:29.473Z,18.47
2022-10-29T11:06:34.421Z,18.72
2022-10-29T11:11:39.993Z,19.02
2022-10-29T11:16:45.364Z,19.20
2022-10-29T11:21:56.454Z,19.05
2022-10-29T11:27:02.607Z,19.08
2022-10-29T11:32:09.464Z,19.24
2022-10-29T11:37:17.362Z,19.41
2022-10-29T11:42:21.289Z,19.61
2022-10-29T11:47:42.339Z,19.77
2022-10-29T11:52:48.497Z,19.85
2022-10-29T11:57:54.505Z,19.67
2022-10-29T12:03:36.503Z,19.79
2022-10-29T12:08:50.028Z,20.29
2022-10-29T12:13:59.722Z,20.59
2022-10-29T12:19:08.210Z,20.47
2022-10-29T12:24:19.704Z,20.71
2022-10-29T12:29:27.188Z,20.66
2022-10-29T12:34:33.008Z,20.82
2022-10-29T12:39:38.600Z,20.72
2022-10-29T12:44:46.288Z,20.68
2022-10-29T12:49:55.790Z,20.59
2022-10-29T12:55:00.781Z,20.84
2022-10-29T13:00:36.947Z,21.04
2022-10-29T13:05:42.864Z,21.08
2022-10-29T13:10:53.755Z,21.00
2022-10-29T13:16:00.795Z,21.01
2022-10-29T13:21:04.885Z,21.13
2022-10-29T13:26:08.323Z,21.07
2022-10-29T13:31:44.416Z,21.08
2022-10-29T13:36:48.367Z,20.99
2022-10-29T13:41:52.049Z,20.97
2022-10-29T13:46:56.830Z,21.02
2022-10-29T13:52:06.153Z,21.16
2022-10-29T13:57:16.944Z,21.28
2022-10-29T14:02:39.296Z,21.15
2022-10-29T14:07:51.137Z,21.06
2022-10-29T14:12:56.798Z,21.01
2022-10-29T14:17:59.586Z,20.98
2022-10-29T14:23:09.380Z,20.95
2022-10-29T14:28:17.280Z,20.79
2022-10-29T14:33:25.344Z,20.77
2022-10-29T14:38:37.499Z,20.78
2022-10-29T14:43:40.322Z,20.80
2022-10-29T14:48:51.694Z,20.85
2022-10-29T14:53:58.117Z,20.89
2022-10-29T14:59:00.999Z,20.57
2022-10-29T15:04:03.653Z,20.64
2022-10-29T15:09:20.044Z,20.44
2022-10-29T15:14:29.569Z,20.30
2022-10-29T15:19:32.157Z,20.39
2022-10-29T15:24:36.473Z,20.14
2022-10-29T15:29:43.228Z,19.99
2022-10-29T15:34:50.870Z,19.84
2022-10-29T15:40:03.327Z,19.81
2022-10-29T15:45:22.730Z,19.73
2022-10-29T15:50:27.338Z,19.65
2022-10-29T15:55:33.060Z,19.46
2022-10-29T16:00:35.988Z,19.34
2022-10-29T16:05:38.626Z,19.28
2022-10-29T16:10:42.639Z,19.21
2022-10-29T16:15:47.749Z,19.14
2022-10-29T16:20:51.136Z,18.99
2022-10-29T16:25:55.103Z,18.95
2022-10-29T16:31:00.096Z,18.94
2022-10-29T16:36:03.432Z,18.86
2022-10-29T16:41:08.279Z,18.81
2022-10-29T16:46:11.921Z,18.80
2022-10-29T16:51:14.532Z,18.70
2022-10-29T16:56:18.556Z,18.54
2022-10-29T17:06:29.813Z,18.52
2022-10-29T17:11:33.814Z,18.52
2022-10-29T17:16:36.579Z,18.37
2022-10-29T17:21:39.417Z,18.38
2022-10-29T17:26:43.461Z,18.32
2022-10-29T17:31:46.127Z,18.27
2022-10-29T17:36:49.548Z,18.18
2022-10-29T17:41:53.640Z,18.12
2022-10-29T17:46:56.623Z,18.11
2022-10-29T17:51:59.263Z,18.05
2022-10-29T17:57:03.194Z,17.98
2022-10-29T18:02:05.886Z,17.95
2022-10-29T18:07:08.542Z,17.90
2022-10-29T18:12:12.440Z,17.83
2022-10-29T18:17:15.059Z,17.82
2022-10-29T18:22:17.784Z,17.67
2022-10-29T18:27:22.057Z,17.63
2022-10-29T18:32:24.678Z,17.55
2022-10-29T18:37:27.236Z,17.43
2022-10-29T18:42:31.392Z,17.40
2022-10-29T18:47:33.949Z,17.36
2022-10-29T18:52:36.661Z,17.35
2022-10-29T18:57:40.616Z,17.28
2022-10-29T19:02:43.260Z,17.21
2022-10-29T19:07:45.857Z,17.24
2022-10-29T19:12:49.764Z,17.13
2022-10-29T19:17:52.399Z,17.13
2022-10-29T19:22:55.958Z,16.98
2022-10-29T19:28:00.120Z,16.91
2022-10-29T19:33:07.718Z,16.85
2022-10-29T19:38:10.866Z,16.82
2022-10-29T19:43:14.799Z,16.71
2022-10-29T19:48:17.855Z,16.66
2022-10-29T19:53:20.452Z,16.55
2022-10-29T19:58:28.718Z,16.54
2022-10-29T20:03:31.328Z,16.55
2022-10-29T20:08:34.355Z,16.51
2022-10-29T20:13:39.909Z,16.41
2022-10-29T20:18:42.570Z,16.34
2022-10-29T20:23:45.678Z,16.36
2022-10-29T20:28:49.664Z,16.29
2022-10-29T20:33:53.000Z,16.19
2022-10-29T20:38:55.706Z,16.23
2022-10-29T20:44:01.097Z,16.22
2022-10-29T20:49:04.049Z,16.10
2022-10-29T20:54:06.892Z,16.07
2022-10-29T20:59:10.842Z,16.07
2022-10-29T21:04:14.414Z,16.05
2022-10-29T21:09:16.998Z,15.97
2022-10-29T21:14:20.987Z,15.97
2022-10-29T21:19:24.654Z,15.95
2022-10-29T21:24:27.211Z,15.93
2022-10-29T21:29:31.108Z,15.92
2022-10-29T21:34:33.694Z,15.93
2022-10-29T21:39:36.251Z,15.88
2022-10-29T21:44:40.160Z,15.90
2022-10-29T21:49:44.974Z,15.89
2022-10-29T21:54:51.534Z,15.67
2022-10-29T21:59:55.467Z,15.54
2022-10-29T22:04:58.009Z,15.56
2022-10-29T22:10:00.582Z,15.48
2022-10-29T22:15:05.086Z,15.43
2022-10-29T22:20:08.436Z,15.39
2022-10-29T22:25:11.110Z,15.17
2022-10-29T22:30:15.100Z,15.01
2022-10-29T22:35:17.686Z,15.08
2022-10-29T22:40:20.266Z,15.12
2022-10-29T22:45:24.263Z,15.08
2022-10-29T22:50:26.803Z,14.94
2022-10-29T22:55:29.360Z,15.01
2022-10-29T23:00:33.277Z,15.05
2022-10-29T23:05:35.870Z,14.63
2022-10-29T23:10:38.435Z,14.68
2022-10-29T23:15:47.058Z,14.81
2022-10-29T23:20:49.636Z,14.76
2022-10-29T23:25:52.481Z,14.62
2022-10-29T23:30:57.526Z,14.69
2022-10-29T23:36:02.674Z,14.65
2022-10-29T23:41:05.710Z,14.64
2022-10-29T23:46:09.798Z,14.58
2022-10-29T23:51:12.469Z,14.49
2022-10-29T23:56:15.041Z,14.39
